createdAt,value
2023-02-13T00:01:06.614Z,15.45
2023-02-13T00:03:35.201Z,25.05
2023-02-13T00:06:02.890Z,22.90
2023-02-13T00:08:31.251Z,16.63
2023-02-13T00:10:59.274Z,12.75
2023-02-13T00:13:27.298Z,24.92
2023-02-13T00:16:00.998Z,22.00
2023-02-13T00:18:30.801Z,15.82
2023-02-13T00:21:04.504Z,24.13
2023-02-13T00:23:33.911Z,13.70
2023-02-13T00:26:07.431Z,16.35
2023-02-13T00:28:35.874Z,16.90
2023-02-13T00:31:10.917Z,25.05
2023-02-13T00:33:39.219Z,17.55
2023-02-13T00:36:14.078Z,17.77
2023-02-13T00:38:43.066Z,19.67
2023-02-13T00:41:11.584Z,23.58
2023-02-13T00:43:39.651Z,24.25
2023-02-13T00:46:07.488Z,26.05
2023-02-13T00:48:36.254Z,18.52
2023-02-13T00:51:04.951Z,18.15
2023-02-13T00:53:34.225Z,25.05
2023-02-13T00:56:02.324Z,20.38
2023-02-13T00:58:30.281Z,19.27
2023-02-13T01:00:59.924Z,19.42
2023-02-13T01:03:28.945Z,20.40
2023-02-13T01:05:58.387Z,28.40
2023-02-13T01:08:28.437Z,23.98
2023-02-13T01:10:57.104Z,17.27
2023-02-13T01:13:25.932Z,21.92
2023-02-13T01:15:54.699Z,18.50
2023-02-13T01:18:22.793Z,17.60
2023-02-13T01:21:08.069Z,15.68
2023-02-13T01:23:38.962Z,16.50
2023-02-13T01:26:11.505Z,24.05
2023-02-13T01:28:39.160Z,24.08
2023-02-13T01:31:06.966Z,19.60
2023-02-13T01:33:36.195Z,15.70
2023-02-13T01:36:10.043Z,20.10
2023-02-13T01:38:39.026Z,23.70
2023-02-13T01:41:07.407Z,18.08
2023-02-13T01:43:52.497Z,20.42
2023-02-13T01:46:36.003Z,20.58
2023-02-13T01:49:34.123Z,24.75
2023-02-13T01:52:03.271Z,21.73
2023-02-13T01:54:33.694Z,21.83
2023-02-13T01:57:18.693Z,28.15
2023-02-13T01:59:56.795Z,21.80
2023-02-13T02:02:24.807Z,30.10
2023-02-13T02:04:53.516Z,22.70
2023-02-13T02:07:26.642Z,20.52
2023-02-13T02:09:59.648Z,27.25
2023-02-13T02:12:48.471Z,26.50
2023-02-13T02:15:18.892Z,25.33
2023-02-13T02:17:47.186Z,23.65
2023-02-13T02:20:40.732Z,27.58
2023-02-13T02:23:42.064Z,21.13
2023-02-13T02:26:32.755Z,25.58
2023-02-13T02:29:09.992Z,19.20
2023-02-13T02:32:02.492Z,20.60
2023-02-13T02:34:54.790Z,18.02
2023-02-13T02:37:40.857Z,19.63
2023-02-13T02:40:23.639Z,18.90
2023-02-13T02:43:13.908Z,24.90
2023-02-13T02:45:58.236Z,20.77
2023-02-13T02:49:06.950Z,20.25
2023-02-13T02:51:43.554Z,21.65
2023-02-13T02:54:34.708Z,30.83
2023-02-13T02:57:18.629Z,23.27
2023-02-13T03:00:13.231Z,23.85
2023-02-13T03:02:59.816Z,21.08
2023-02-13T03:05:53.426Z,20.88
2023-02-13T03:08:41.543Z,31.42
2023-02-13T03:11:28.751Z,27.90
2023-02-13T03:14:01.004Z,25.67
2023-02-13T03:16:48.516Z,21.85
2023-02-13T03:20:14.119Z,26.00
2023-02-13T03:22:45.446Z,21.65
2023-02-13T03:25:30.264Z,23.95
2023-02-13T03:28:20.555Z,22.90
2023-02-13T03:30:53.899Z,20.63
2023-02-13T03:33:42.754Z,17.27
2023-02-13T03:36:47.614Z,23.63
2023-02-13T03:39:43.607Z,17.20
2023-02-13T03:42:36.466Z,22.30
2023-02-13T03:45:31.659Z,20.15
2023-02-13T03:48:09.998Z,18.85
2023-02-13T03:50:42.194Z,18.80
2023-02-13T03:53:14.543Z,21.17
2023-02-13T03:56:06.618Z,20.02
2023-02-13T03:58:56.701Z,17.05
2023-02-13T04:01:28.640Z,20.40
2023-02-13T04:04:04.689Z,17.40
2023-02-13T04:06:46.882Z,22.85
2023-02-13T04:09:14.984Z,21.40
2023-02-13T04:11:48.730Z,19.17
2023-02-13T04:14:24.397Z,18.60
2023-02-13T04:17:05.862Z,15.35
2023-02-13T04:19:33.993Z,23.65
2023-02-13T04:22:03.060Z,17.90
2023-02-13T04:24:31.608Z,17.67
2023-02-13T04:27:00.136Z,19.98
2023-02-13T04:29:28.573Z,17.80
2023-02-13T04:31:56.599Z,19.48
2023-02-13T04:34:24.743Z,18.40
2023-02-13T04:36:52.305Z,19.45
2023-02-13T04:39:19.906Z,19.77
2023-02-13T04:41:48.445Z,20.00
2023-02-13T04:44:16.864Z,22.73
2023-02-13T04:46:44.913Z,26.77
2023-02-13T04:49:12.724Z,22.90
2023-02-13T04:51:41.725Z,21.85
2023-02-13T04:54:11.860Z,23.27
2023-02-13T04:56:39.470Z,24.80
2023-02-13T04:59:07.448Z,23.70
2023-02-13T05:01:35.562Z,29.98
2023-02-13T05:04:03.583Z,23.65
2023-02-13T05:06:31.056Z,25.23
2023-02-13T05:08:58.982Z,24.67
2023-02-13T05:11:26.620Z,22.42
2023-02-13T05:13:54.613Z,27.75
2023-02-13T05:16:22.955Z,26.17
2023-02-13T05:18:54.843Z,25.13
2023-02-13T05:21:41.617Z,21.88
2023-02-13T05:24:09.258Z,25.90
2023-02-13T05:26:37.453Z,24.67
2023-02-13T05:29:22.502Z,24.85
2023-02-13T05:31:53.561Z,26.52
2023-02-13T05:34:23.522Z,28.83
2023-02-13T05:36:51.496Z,34.60
2023-02-13T05:39:19.456Z,29.88
2023-02-13T05:41:49.608Z,32.60
2023-02-13T05:44:17.687Z,28.83
2023-02-13T05:46:45.695Z,27.63
2023-02-13T05:49:14.773Z,23.73
2023-02-13T05:51:43.836Z,21.23
2023-02-13T05:54:11.824Z,20.00
2023-02-13T05:56:39.315Z,23.05
2023-02-13T05:59:16.136Z,24.20
2023-02-13T06:01:47.121Z,33.45
2023-02-13T06:04:15.312Z,29.10
2023-02-13T06:06:44.906Z,25.30
2023-02-13T06:09:12.516Z,23.25
2023-02-13T06:11:40.045Z,27.83
2023-02-13T06:14:08.048Z,30.42
2023-02-13T06:16:36.197Z,25.75
2023-02-13T06:19:04.745Z,29.75
2023-02-13T06:21:33.607Z,27.45
2023-02-13T06:24:01.590Z,30.50
2023-02-13T06:26:29.625Z,28.48
2023-02-13T06:28:57.214Z,28.27
2023-02-13T06:31:25.787Z,42.35
2023-02-13T06:33:53.306Z,34.17
2023-02-13T06:36:20.971Z,34.72
2023-02-13T06:38:48.920Z,35.33
2023-02-13T06:41:17.005Z,30.42
2023-02-13T06:43:44.729Z,33.95
2023-02-13T06:46:12.319Z,29.60
2023-02-13T06:48:40.537Z,33.33
2023-02-13T06:51:08.559Z,212.77
2023-02-13T06:54:02.759Z,34.30
2023-02-13T06:56:30.743Z,40.22
2023-02-13T06:58:58.399Z,31.05
2023-02-13T07:01:26.325Z,36.42
2023-02-13T07:03:53.917Z,39.70
2023-02-13T07:06:22.132Z,34.97
2023-02-13T07:08:55.205Z,39.47
2023-02-13T07:11:25.270Z,42.45
2023-02-13T07:13:53.283Z,34.38
2023-02-13T07:16:21.588Z,39.58
2023-02-13T07:18:50.017Z,33.60
2023-02-13T07:21:17.951Z,35.50
2023-02-13T07:23:46.139Z,33.55
2023-02-13T07:26:13.739Z,51.75
2023-02-13T07:28:41.780Z,39.95
2023-02-13T07:31:11.376Z,49.75
2023-02-13T07:33:38.992Z,52.03
2023-02-13T07:36:07.816Z,37.10
2023-02-13T07:38:35.620Z,35.70
2023-02-13T07:41:04.341Z,39.38
2023-02-13T07:43:32.708Z,40.10
2023-02-13T07:46:02.059Z,39.47
2023-02-13T07:48:31.584Z,33.33
2023-02-13T07:51:01.483Z,38.03
2023-02-13T07:53:29.645Z,38.17
2023-02-13T07:55:57.440Z,34.83
2023-02-13T07:58:26.629Z,42.88
2023-02-13T08:00:55.051Z,42.55
2023-02-13T08:03:22.833Z,35.92
2023-02-13T08:05:50.811Z,35.72
2023-02-13T08:08:18.758Z,27.65
2023-02-13T08:11:05.409Z,27.15
2023-02-13T08:13:33.689Z,32.67
2023-02-13T08:16:01.597Z,33.78
2023-02-13T08:18:29.676Z,34.13
2023-02-13T08:20:57.174Z,33.35
2023-02-13T08:23:25.578Z,34.30
2023-02-13T08:25:55.006Z,36.35
2023-02-13T08:28:23.948Z,32.10
2023-02-13T08:30:51.581Z,31.73
2023-02-13T08:33:20.203Z,33.00
2023-02-13T08:35:48.246Z,28.15
2023-02-13T08:38:16.290Z,34.38
2023-02-13T08:40:44.553Z,31.75
2023-02-13T08:43:12.070Z,32.92
2023-02-13T08:45:40.180Z,24.88
2023-02-13T08:48:08.209Z,29.27
2023-02-13T08:50:37.136Z,28.48
2023-02-13T08:53:05.416Z,23.38
2023-02-13T08:55:33.353Z,28.90
2023-02-13T08:58:02.917Z,34.78
2023-02-13T09:00:31.928Z,29.27
2023-02-13T09:03:04.736Z,31.40
2023-02-13T09:05:33.144Z,31.77
2023-02-13T09:08:03.339Z,34.80
2023-02-13T09:10:33.251Z,33.45
2023-02-13T09:13:01.461Z,21.73
2023-02-13T09:15:29.214Z,24.65
2023-02-13T09:17:57.871Z,26.10
2023-02-13T09:20:26.562Z,25.20
2023-02-13T09:22:56.035Z,21.67
2023-02-13T09:25:24.802Z,34.85
2023-02-13T09:27:53.030Z,35.55
2023-02-13T09:30:24.046Z,26.23
2023-02-13T09:32:53.807Z,25.08
2023-02-13T09:35:23.193Z,29.73
2023-02-13T09:37:51.647Z,23.35
2023-02-13T09:40:29.432Z,24.55
2023-02-13T09:43:26.685Z,21.00
2023-02-13T09:45:59.172Z,30.38
2023-02-13T09:48:33.702Z,19.92
2023-02-13T09:51:01.481Z,30.42
2023-02-13T09:53:33.512Z,27.70
2023-02-13T09:56:14.603Z,26.33
2023-02-13T09:58:47.916Z,31.33
2023-02-13T10:01:31.141Z,24.75
2023-02-13T10:04:26.657Z,31.10
2023-02-13T10:07:13.789Z,31.80
2023-02-13T10:09:56.111Z,26.00
2023-02-13T10:12:49.655Z,25.50
2023-02-13T10:15:31.294Z,24.50
2023-02-13T10:18:05.431Z,29.90
2023-02-13T10:20:50.855Z,26.02
2023-02-13T10:23:27.083Z,28.13
2023-02-13T10:26:04.488Z,26.92
2023-02-13T10:29:09.979Z,29.80
2023-02-13T10:31:40.667Z,41.95
2023-02-13T10:34:15.518Z,29.30
2023-02-13T10:36:48.415Z,23.67
2023-02-13T10:39:29.393Z,33.83
2023-02-13T10:42:24.676Z,30.30
2023-02-13T10:44:58.904Z,26.38
2023-02-13T10:47:32.742Z,29.25
2023-02-13T10:50:37.899Z,28.80
2023-02-13T10:53:17.601Z,24.08
2023-02-13T10:56:01.450Z,26.23
2023-02-13T10:58:32.496Z,25.52
2023-02-13T11:01:21.646Z,21.13
2023-02-13T11:04:04.725Z,23.85
2023-02-13T11:06:35.714Z,23.33
2023-02-13T11:09:06.747Z,27.98
2023-02-13T11:11:38.233Z,25.10
2023-02-13T11:14:11.798Z,23.63
2023-02-13T11:16:44.020Z,27.67
2023-02-13T11:19:19.429Z,35.28
2023-02-13T11:21:54.279Z,23.25
2023-02-13T11:24:25.544Z,21.20
2023-02-13T11:26:59.361Z,24.92
2023-02-13T11:29:35.318Z,25.13
2023-02-13T11:32:12.769Z,25.50
2023-02-13T11:34:41.872Z,26.02
2023-02-13T11:37:13.230Z,32.92
2023-02-13T11:39:42.810Z,31.08
2023-02-13T11:42:34.692Z,25.85
2023-02-13T11:45:21.098Z,24.38
2023-02-13T11:47:49.676Z,27.25
2023-02-13T11:50:22.906Z,27.58
2023-02-13T11:53:01.704Z,27.52
2023-02-13T11:55:35.340Z,27.15
2023-02-13T11:58:25.657Z,23.33
2023-02-13T12:01:22.548Z,23.92
2023-02-13T12:04:18.078Z,25.88
2023-02-13T12:07:20.491Z,27.17
2023-02-13T12:10:25.077Z,25.55
2023-02-13T12:13:11.699Z,32.83
2023-02-13T12:15:40.675Z,29.95
2023-02-13T12:18:29.758Z,31.33
2023-02-13T12:21:09.441Z,27.08
2023-02-13T12:24:09.118Z,27.27
2023-02-13T12:26:52.452Z,27.48
2023-02-13T12:29:52.066Z,25.55
2023-02-13T12:32:25.765Z,24.92
2023-02-13T12:35:29.492Z,25.38
2023-02-13T12:38:15.511Z,25.23
2023-02-13T12:40:58.701Z,22.63
2023-02-13T12:44:00.980Z,23.40
2023-02-13T12:46:33.157Z,25.77
2023-02-13T12:49:15.891Z,28.10
2023-02-13T12:52:07.905Z,30.75
2023-02-13T12:54:45.113Z,27.27
2023-02-13T12:57:28.345Z,29.45
2023-02-13T13:00:17.636Z,25.70
2023-02-13T13:02:50.557Z,25.90
2023-02-13T13:05:21.101Z,27.53
2023-02-13T13:08:26.060Z,28.30
2023-02-13T13:10:54.160Z,29.58
2023-02-13T13:13:54.537Z,25.00
2023-02-13T13:16:43.064Z,26.65
2023-02-13T13:19:10.913Z,29.90
2023-02-13T13:22:13.856Z,25.35
2023-02-13T13:25:01.716Z,24.58
2023-02-13T13:27:40.555Z,28.40
2023-02-13T13:30:18.825Z,28.73
2023-02-13T13:32:52.159Z,26.17
2023-02-13T13:35:21.532Z,27.45
2023-02-13T13:38:03.495Z,27.70
2023-02-13T13:41:06.511Z,28.25
2023-02-13T13:43:34.059Z,25.75
2023-02-13T13:46:19.651Z,24.23
2023-02-13T13:49:14.581Z,23.63
2023-02-13T13:51:43.240Z,26.48
2023-02-13T13:54:11.380Z,23.77
2023-02-13T13:56:54.150Z,30.02
2023-02-13T13:59:34.740Z,26.92
2023-02-13T14:02:22.996Z,29.35
2023-02-13T14:05:27.963Z,30.27
2023-02-13T14:08:18.288Z,25.75
2023-02-13T14:10:58.451Z,27.67
2023-02-13T14:13:35.929Z,24.50
2023-02-13T14:16:05.943Z,26.17
2023-02-13T14:18:35.485Z,28.30
2023-02-13T14:21:05.534Z,27.85
2023-02-13T14:23:34.076Z,27.02
2023-02-13T14:26:26.099Z,28.08
2023-02-13T14:28:54.082Z,29.20
2023-02-13T14:31:30.227Z,25.95
2023-02-13T14:34:05.196Z,24.83
2023-02-13T14:36:38.048Z,24.25
2023-02-13T14:39:17.745Z,26.47
2023-02-13T14:41:54.165Z,24.45
2023-02-13T14:44:36.938Z,26.73
2023-02-13T14:47:18.838Z,23.65
2023-02-13T14:49:50.252Z,28.42
2023-02-13T14:52:27.646Z,27.30
2023-02-13T14:55:14.649Z,28.13
2023-02-13T14:57:50.727Z,29.23
2023-02-13T15:00:36.382Z,24.92
2023-02-13T15:03:24.384Z,22.40
2023-02-13T15:05:57.032Z,26.38
2023-02-13T15:08:34.873Z,26.43
2023-02-13T15:11:02.684Z,28.63
2023-02-13T15:13:37.496Z,25.42
2023-02-13T15:16:10.207Z,27.88
2023-02-13T15:18:50.085Z,29.77
2023-02-13T15:21:21.010Z,32.47
2023-02-13T15:23:55.771Z,24.80
2023-02-13T15:26:28.030Z,31.00
2023-02-13T15:29:26.680Z,27.48
2023-02-13T15:31:58.899Z,27.75
2023-02-13T15:34:34.424Z,30.23
2023-02-13T15:37:03.210Z,30.58
2023-02-13T15:39:33.081Z,30.15
2023-02-13T15:42:03.282Z,28.83
2023-02-13T15:44:37.668Z,30.85
2023-02-13T15:47:17.973Z,30.75
2023-02-13T15:49:48.094Z,31.45
2023-02-13T15:52:24.043Z,33.95
2023-02-13T15:54:55.926Z,29.90
2023-02-13T15:57:25.761Z,35.70
2023-02-13T15:59:57.132Z,41.65
2023-02-13T16:02:46.394Z,32.50
2023-02-13T16:05:19.989Z,32.83
2023-02-13T16:07:57.823Z,38.25
2023-02-13T16:10:36.567Z,45.55
2023-02-13T16:13:18.952Z,34.78
2023-02-13T16:15:47.256Z,33.42
2023-02-13T16:18:20.268Z,35.67
2023-02-13T16:20:54.395Z,40.92
2023-02-13T16:23:22.539Z,36.78
2023-02-13T16:25:53.097Z,34.08
2023-02-13T16:28:25.619Z,38.72
2023-02-13T16:31:01.528Z,33.53
2023-02-13T16:33:32.706Z,38.63
2023-02-13T16:36:18.224Z,39.20
2023-02-13T16:38:48.078Z,44.38
2023-02-13T16:41:19.606Z,39.85
2023-02-13T16:44:00.181Z,37.05
2023-02-13T16:46:28.038Z,41.03
2023-02-13T16:49:01.686Z,43.72
2023-02-13T16:51:48.699Z,45.00
2023-02-13T16:54:25.613Z,38.53
2023-02-13T16:56:59.057Z,45.75
2023-02-13T16:59:41.852Z,46.80
2023-02-13T17:02:15.854Z,57.67
2023-02-13T17:04:55.819Z,46.78
2023-02-13T17:07:27.266Z,50.53
2023-02-13T17:09:58.324Z,65.93
2023-02-13T17:12:28.146Z,54.25
2023-02-13T17:14:59.999Z,55.50
2023-02-13T17:17:30.467Z,48.58
2023-02-13T17:20:02.336Z,57.92
2023-02-13T17:22:37.484Z,57.38
2023-02-13T17:25:33.103Z,60.83
2023-02-13T17:28:10.810Z,60.42
2023-02-13T17:30:38.542Z,57.75
2023-02-13T17:33:12.439Z,51.10
2023-02-13T17:35:41.196Z,55.35
2023-02-13T17:38:10.121Z,44.47
2023-02-13T17:40:37.797Z,50.80
2023-02-13T17:43:05.846Z,52.83
2023-02-13T17:45:35.784Z,57.10
2023-02-13T17:48:04.963Z,50.50
2023-02-13T17:50:34.976Z,51.67
2023-02-13T17:53:09.227Z,46.90
2023-02-13T17:55:36.744Z,64.72
2023-02-13T17:58:04.658Z,57.38
2023-02-13T18:00:33.924Z,56.47
2023-02-13T18:03:02.357Z,51.38
2023-02-13T18:05:31.301Z,59.45
2023-02-13T18:08:02.108Z,62.60
2023-02-13T18:10:33.384Z,52.80
2023-02-13T18:13:04.542Z,61.67
2023-02-13T18:15:34.329Z,48.70
2023-02-13T18:18:03.286Z,57.75
2023-02-13T18:20:30.921Z,68.28
2023-02-13T18:22:59.143Z,51.08
2023-02-13T18:25:27.653Z,59.65
2023-02-13T18:27:55.841Z,52.83
2023-02-13T18:30:25.136Z,54.10
2023-02-13T18:32:55.026Z,69.55
2023-02-13T18:35:23.702Z,59.38
2023-02-13T18:37:51.989Z,61.90
2023-02-13T18:40:20.736Z,58.15
2023-02-13T18:42:51.160Z,64.55
2023-02-13T18:45:19.691Z,71.47
2023-02-13T18:47:47.631Z,74.78
2023-02-13T18:50:15.663Z,56.88
2023-02-13T18:52:43.833Z,59.33
2023-02-13T18:55:12.469Z,66.47
2023-02-13T18:57:43.516Z,64.13
2023-02-13T19:00:14.379Z,55.47
2023-02-13T19:02:42.525Z,59.05
2023-02-13T19:05:10.101Z,65.38
2023-02-13T19:07:38.553Z,60.40
2023-02-13T19:10:07.154Z,66.40
2023-02-13T19:12:35.605Z,62.28
2023-02-13T19:15:05.088Z,62.10
2023-02-13T19:17:35.103Z,60.45
2023-02-13T19:20:03.040Z,61.10
2023-02-13T19:22:30.739Z,65.90
2023-02-13T19:24:58.870Z,56.70
2023-02-13T19:27:26.869Z,55.10
2023-02-13T19:29:54.379Z,62.65
2023-02-13T19:32:22.450Z,68.45
2023-02-13T19:34:50.335Z,59.45
2023-02-13T19:37:18.676Z,75.25
2023-02-13T19:39:46.223Z,57.15
2023-02-13T19:42:14.322Z,59.40
2023-02-13T19:44:42.078Z,68.72
2023-02-13T19:47:10.220Z,68.50
2023-02-13T19:49:37.863Z,66.72
2023-02-13T19:52:05.935Z,54.72
2023-02-13T19:54:34.177Z,58.22
2023-02-13T19:57:05.212Z,64.90
2023-02-13T19:59:33.764Z,61.15
2023-02-13T20:02:01.553Z,72.03
2023-02-13T20:04:29.712Z,61.63
2023-02-13T20:06:58.432Z,64.57
2023-02-13T20:09:26.779Z,63.42
2023-02-13T20:11:54.835Z,72.45
2023-02-13T20:14:23.848Z,82.25
2023-02-13T20:16:51.841Z,74.03
2023-02-13T20:19:19.399Z,80.60
2023-02-13T20:21:47.569Z,88.40
2023-02-13T20:24:15.689Z,79.95
2023-02-13T20:26:44.252Z,88.60
2023-02-13T20:29:12.521Z,105.30
2023-02-13T20:31:41.603Z,81.25
2023-02-13T20:34:10.116Z,80.30
2023-02-13T20:36:38.327Z,72.00
2023-02-13T20:39:07.806Z,68.78
2023-02-13T20:41:38.445Z,70.75
2023-02-13T20:44:10.823Z,65.75
2023-02-13T20:46:39.872Z,64.15
2023-02-13T20:49:10.468Z,64.45
2023-02-13T20:51:38.996Z,61.90
2023-02-13T20:54:06.851Z,75.45
2023-02-13T20:56:34.835Z,56.42
2023-02-13T20:59:05.356Z,65.70
2023-02-13T21:01:40.469Z,65.00
2023-02-13T21:04:11.284Z,65.22
2023-02-13T21:06:41.412Z,55.17
2023-02-13T21:09:10.702Z,52.85
2023-02-13T21:11:43.265Z,66.82
2023-02-13T21:14:14.304Z,69.18
2023-02-13T21:16:43.157Z,68.97
2023-02-13T21:19:17.799Z,65.43
2023-02-13T21:21:46.664Z,62.20
2023-02-13T21:24:22.908Z,63.55
2023-02-13T21:26:52.813Z,63.97
2023-02-13T21:29:22.303Z,70.78
2023-02-13T21:31:51.269Z,71.40
2023-02-13T21:34:19.953Z,66.78
2023-02-13T21:36:47.811Z,68.55
2023-02-13T21:39:15.953Z,63.13
2023-02-13T21:41:45.117Z,79.97
2023-02-13T21:44:15.211Z,63.38
2023-02-13T21:46:45.586Z,74.40
2023-02-13T21:49:16.676Z,68.15
2023-02-13T21:51:44.512Z,74.53
2023-02-13T21:54:12.766Z,65.82
2023-02-13T21:56:42.514Z,61.30
2023-02-13T21:59:14.601Z,62.72
2023-02-13T22:01:48.326Z,68.65
2023-02-13T22:04:17.870Z,74.28
2023-02-13T22:06:51.053Z,64.38
2023-02-13T22:09:20.426Z,71.22
2023-02-13T22:11:50.937Z,63.05
2023-02-13T22:14:19.736Z,69.55
2023-02-13T22:16:50.945Z,65.60
2023-02-13T22:19:21.410Z,65.15
2023-02-13T22:21:50.328Z,69.53
2023-02-13T22:24:18.100Z,72.13
2023-02-13T22:26:45.737Z,77.10
2023-02-13T22:29:15.871Z,68.03
2023-02-13T22:31:45.067Z,80.95
2023-02-13T22:34:14.082Z,72.97
2023-02-13T22:36:42.911Z,69.15
2023-02-13T22:39:12.807Z,75.35
2023-02-13T22:41:41.599Z,68.30
2023-02-13T22:44:09.754Z,71.10
2023-02-13T22:46:38.056Z,71.57
2023-02-13T22:49:06.680Z,76.25
2023-02-13T22:51:36.507Z,68.88
2023-02-13T22:54:05.432Z,70.07
2023-02-13T22:56:33.974Z,74.38
2023-02-13T22:59:01.756Z,73.07
2023-02-13T23:01:30.758Z,65.40
2023-02-13T23:03:59.455Z,63.33
2023-02-13T23:06:27.287Z,61.40
2023-02-13T23:08:55.813Z,57.92
2023-02-13T23:11:44.966Z,61.65
2023-02-13T23:14:13.818Z,61.55
2023-02-13T23:17:01.185Z,54.92
2023-02-13T23:19:30.235Z,53.50
2023-02-13T23:21:59.066Z,64.22
2023-02-13T23:24:29.061Z,60.58
2023-02-13T23:26:57.050Z,55.78
2023-02-13T23:29:25.252Z,56.50
2023-02-13T23:31:53.798Z,52.72
2023-02-13T23:34:21.674Z,57.72
2023-02-13T23:36:49.240Z,48.20
2023-02-13T23:39:17.197Z,60.45
2023-02-13T23:41:45.633Z,53.35
2023-02-13T23:44:13.248Z,56.20
2023-02-13T23:46:40.885Z,57.55
2023-02-13T23:49:08.754Z,59.20
2023-02-13T23:51:37.084Z,57.25
2023-02-13T23:54:05.743Z,47.78
2023-02-13T23:56:33.320Z,54.05
2023-02-13T23:59:00.939Z,49.17
